createdAt,value
2022-10-17T00:00:27.137Z,101648.77
2022-10-17T00:01:31.130Z,101641.80
2022-10-17T00:02:35.106Z,101642.72
2022-10-17T00:03:40.318Z,101646.41
2022-10-17T00:04:44.281Z,101646.41
2022-10-17T00:05:49.911Z,101640.14
2022-10-17T00:06:56.032Z,101649.06
2022-10-17T00:08:01.696Z,101649.92
2022-10-17T00:09:07.282Z,101649.06
2022-10-17T00:10:12.377Z,101652.64
2022-10-17T00:11:22.132Z,101649.12
2022-10-17T00:12:27.919Z,101656.23
2022-10-17T00:13:34.675Z,101656.23
2022-10-17T00:14:38.695Z,101658.95
2022-10-17T00:15:44.456Z,101657.24
2022-10-17T00:16:48.390Z,101652.78
2022-10-17T00:17:52.251Z,101655.50
2022-10-17T00:18:56.697Z,101628.87
2022-10-17T00:20:00.872Z,101650.33
2022-10-17T00:21:05.043Z,101646.91
2022-10-17T00:22:09.034Z,101652.22
2022-10-17T00:23:15.602Z,101646.11
2022-10-17T00:24:19.462Z,101659.39
2022-10-17T00:25:24.762Z,101654.99
2022-10-17T00:26:28.977Z,101660.39
2022-10-17T00:27:41.083Z,101664.86
2022-10-17T00:28:47.356Z,101666.71
2022-10-17T00:29:55.332Z,101659.69
2022-10-17T00:31:02.181Z,101673.87
2022-10-17T00:32:06.292Z,101663.34
2022-10-17T00:33:10.247Z,101665.11
2022-10-17T00:34:14.245Z,101655.48
2022-10-17T00:35:18.341Z,101655.48
2022-10-17T00:36:25.005Z,101660.09
2022-10-17T00:37:30.749Z,101661.89
2022-10-17T00:38:37.089Z,101661.95
2022-10-17T00:39:40.950Z,101667.26
2022-10-17T00:40:45.007Z,101658.52
2022-10-17T00:41:50.501Z,101662.09
2022-10-17T00:42:54.439Z,101663.03
2022-10-17T00:44:02.577Z,101667.41
2022-10-17T00:45:09.472Z,101670.15
2022-10-17T00:46:13.697Z,101670.15
2022-10-17T00:47:20.612Z,101670.20
2022-10-17T00:48:26.092Z,101667.55
2022-10-17T00:49:33.007Z,101673.80
2022-10-17T00:50:41.909Z,101672.00
2022-10-17T00:51:51.537Z,101670.29
2022-10-17T00:52:57.859Z,101670.34
2022-10-17T00:54:05.686Z,101667.69
2022-10-17T00:55:16.142Z,101673.00
2022-10-17T00:57:35.587Z,101671.20
2022-10-17T00:58:39.826Z,101671.34
2022-10-17T00:59:46.209Z,101673.14
2022-10-17T01:00:50.272Z,101673.14
2022-10-17T01:02:03.963Z,101668.74
2022-10-17T01:03:08.203Z,101659.20
2022-10-17T01:04:13.210Z,101663.80
2022-10-17T01:05:19.922Z,101663.80
2022-10-17T01:06:23.923Z,101665.66
2022-10-17T01:07:33.209Z,101671.02
2022-10-17T01:08:38.180Z,101668.51
2022-10-17T01:09:45.517Z,101662.34
2022-10-17T01:11:08.745Z,101660.69
2022-10-17T01:12:30.927Z,101661.63
2022-10-17T01:13:43.753Z,101665.19
2022-10-17T01:15:15.592Z,101664.39
2022-10-17T01:16:22.575Z,101670.72
2022-10-17T01:17:49.198Z,101670.72
2022-10-17T01:19:03.418Z,101577.20
2022-10-17T01:20:10.446Z,101664.75
2022-10-17T01:21:36.667Z,101667.59
2022-10-17T01:22:49.436Z,101665.98
2022-10-17T01:24:29.410Z,101669.72
2022-10-17T01:25:47.889Z,101671.57
2022-10-17T01:27:10.050Z,101669.05
2022-10-17T01:28:34.836Z,101665.68
2022-10-17T01:30:03.546Z,101665.68
2022-10-17T01:31:15.830Z,101665.68
2022-10-17T01:32:29.377Z,101656.11
2022-10-17T01:33:39.565Z,101656.20
2022-10-17T01:34:52.507Z,101656.20
2022-10-17T01:36:05.625Z,101656.20
2022-10-17T01:37:25.722Z,101659.75
2022-10-17T01:38:32.605Z,101656.20
2022-10-17T01:39:54.656Z,101656.20
2022-10-17T01:41:07.425Z,101652.60
2022-10-17T01:42:30.567Z,101657.91
2022-10-17T01:43:56.042Z,101656.97
2022-10-17T01:45:08.911Z,101652.55
2022-10-17T01:46:20.001Z,101646.30
2022-10-17T01:47:31.625Z,101656.06
2022-10-17T01:48:41.273Z,101653.32
2022-10-17T01:49:48.204Z,101663.88
2022-10-17T01:51:01.086Z,101648.02
2022-10-17T01:52:13.726Z,101648.02
2022-10-17T01:53:20.637Z,101646.22
2022-10-17T01:54:30.087Z,101655.92
2022-10-17T01:55:39.296Z,101650.61
2022-10-17T01:56:48.608Z,101655.92
2022-10-17T01:57:57.131Z,101654.98
2022-10-17T01:59:16.042Z,101649.67
2022-10-17T02:00:23.799Z,101644.38
2022-10-17T02:01:30.554Z,101643.46
2022-10-17T02:02:36.588Z,101642.57
2022-10-17T02:03:43.461Z,101635.50
2022-10-17T02:04:50.303Z,101632.84
2022-10-17T02:05:58.220Z,101632.84
2022-10-17T02:07:10.682Z,101638.92
2022-10-17T02:08:16.621Z,101646.03
2022-10-17T02:09:26.351Z,101650.48
2022-10-17T02:10:43.580Z,101646.11
2022-10-17T02:12:02.152Z,101647.02
2022-10-17T02:13:21.003Z,101652.33
2022-10-17T02:14:45.297Z,101654.18
2022-10-17T02:15:55.319Z,101660.37
2022-10-17T02:17:12.637Z,101650.61
2022-10-17T02:18:31.483Z,101647.96
2022-10-17T03:54:43.185Z,101695.31
2022-10-17T03:55:42.805Z,101698.83
2022-10-17T03:56:46.933Z,101697.06
2022-10-17T03:57:50.882Z,101698.77
2022-10-17T03:58:55.811Z,101698.77
2022-10-17T03:59:59.671Z,101698.77
2022-10-17T04:01:08.233Z,101704.94
2022-10-17T04:02:12.265Z,101712.05
2022-10-17T04:03:17.395Z,101711.11
2022-10-17T04:04:21.762Z,101711.11
2022-10-17T04:05:25.689Z,101712.05
2022-10-17T04:06:29.620Z,101715.64
2022-10-17T04:07:33.559Z,101713.89
2022-10-17T04:08:37.426Z,101724.51
2022-10-17T04:09:41.386Z,101722.80
2022-10-17T04:10:45.355Z,101722.80
2022-10-17T04:11:49.215Z,101721.08
2022-10-17T04:12:53.151Z,101714.03
2022-10-17T04:13:58.144Z,101718.48
2022-10-17T04:15:02.039Z,101720.27
2022-10-17T04:16:10.689Z,101715.77
2022-10-17T04:17:17.201Z,101715.77
2022-10-17T04:18:20.165Z,101720.19
2022-10-17T04:19:25.652Z,101720.19
2022-10-17T04:20:29.597Z,101728.10
2022-10-17T04:21:33.465Z,101718.34
2022-10-17T04:22:37.391Z,101723.65
2022-10-17T04:23:41.263Z,101727.16
2022-10-17T04:24:46.835Z,101733.27
2022-10-17T04:25:50.722Z,101729.77
2022-10-17T04:26:54.640Z,101727.03
2022-10-17T04:27:58.583Z,101732.33
2022-10-17T04:29:02.560Z,101732.33
2022-10-17T04:30:07.367Z,101724.27
2022-10-17T04:31:13.725Z,101724.27
2022-10-17T04:32:17.661Z,101726.84
2022-10-17T04:33:21.556Z,101722.39
2022-10-17T04:34:25.605Z,101713.52
2022-10-17T04:35:31.187Z,101718.83
2022-10-17T04:36:35.122Z,101719.73
2022-10-17T04:37:39.057Z,101716.31
2022-10-17T04:38:42.960Z,101712.77
2022-10-17T04:39:46.910Z,101717.22
2022-10-17T04:40:51.001Z,101708.34
2022-10-17T04:41:54.924Z,101706.60
2022-10-17T04:43:01.805Z,101707.59
2022-10-17T04:44:04.610Z,101704.03
2022-10-17T04:45:09.017Z,101707.41
2022-10-17T04:46:15.092Z,101707.13
2022-10-17T04:47:19.115Z,101707.13
2022-10-17T04:48:23.055Z,101705.95
2022-10-17T04:49:27.007Z,101675.95
2022-10-17T04:50:32.992Z,101675.95
2022-10-17T04:51:36.584Z,101704.59
2022-10-17T04:52:40.448Z,101699.79
2022-10-17T04:53:50.782Z,101716.24
2022-10-17T04:54:51.657Z,101723.81
2022-10-17T04:55:55.710Z,101728.78
2022-10-17T04:56:59.657Z,101733.72
2022-10-17T04:58:03.663Z,101732.38
2022-10-17T04:59:10.200Z,101739.94
2022-10-17T05:00:15.874Z,101735.97
2022-10-17T05:02:47.224Z,101721.37
2022-10-17T05:03:51.331Z,101719.70
2022-10-17T05:04:55.202Z,101720.19
2022-10-17T05:06:00.414Z,101719.88
2022-10-17T05:07:04.347Z,101723.97
2022-10-17T05:08:10.827Z,101719.29
2022-10-17T05:09:16.320Z,101719.77
2022-10-17T05:10:20.370Z,101718.53
2022-10-17T05:11:29.588Z,101710.23
2022-10-17T05:12:33.508Z,101711.66
2022-10-17T05:13:37.380Z,101716.66
2022-10-17T05:14:41.297Z,101720.80
2022-10-17T05:15:46.792Z,101718.77
2022-10-17T05:16:52.221Z,101718.77
2022-10-17T05:18:02.230Z,101719.70
2022-10-17T05:19:17.143Z,101713.97
2022-10-17T05:20:17.873Z,101716.14
2022-10-17T05:21:23.297Z,101713.92
2022-10-17T05:22:30.612Z,101720.66
2022-10-17T05:23:35.066Z,101724.63
2022-10-17T05:24:38.911Z,101720.70
2022-10-17T05:25:42.797Z,101726.48
2022-10-17T05:26:46.765Z,101725.14
2022-10-17T05:27:50.743Z,101725.14
2022-10-17T05:28:55.296Z,101728.86
2022-10-17T05:29:59.240Z,101724.13
2022-10-17T05:31:07.226Z,101717.48
2022-10-17T05:32:11.174Z,101726.10
2022-10-17T05:33:15.166Z,101723.11
2022-10-17T05:34:19.060Z,101723.11
2022-10-17T05:35:23.002Z,101726.78
2022-10-17T05:36:26.968Z,101725.49
2022-10-17T05:37:31.759Z,101733.14
2022-10-17T05:38:35.812Z,101734.52
2022-10-17T05:39:42.112Z,101732.45
2022-10-17T05:44:04.667Z,101739.21
2022-10-17T05:45:10.458Z,101744.11
2022-10-17T05:46:14.569Z,101744.11
2022-10-17T05:47:20.177Z,101746.22
2022-10-17T05:48:24.567Z,101743.18
2022-10-17T05:49:44.704Z,101744.73
2022-10-17T05:52:04.628Z,101749.70
2022-10-17T05:53:11.187Z,101747.94
2022-10-17T05:54:15.101Z,101741.55
2022-10-17T05:55:18.939Z,101741.55
2022-10-17T05:56:24.387Z,101738.22
2022-10-17T05:57:28.279Z,101747.75
2022-10-17T05:58:51.555Z,101746.44
2022-10-17T05:59:39.575Z,101755.04
2022-10-17T06:01:50.087Z,101756.36
2022-10-17T06:02:54.045Z,101755.31
2022-10-17T06:03:57.955Z,101752.36
2022-10-17T06:05:01.882Z,101755.69
2022-10-17T06:06:13.481Z,101752.74
2022-10-17T06:07:17.850Z,101755.02
2022-10-17T06:08:22.252Z,101755.02
2022-10-17T06:09:26.145Z,101755.59
2022-10-17T06:10:30.128Z,101755.59
2022-10-17T06:12:41.818Z,101743.36
2022-10-17T06:13:12.719Z,101749.84
2022-10-17T06:13:49.463Z,101756.34
2022-10-17T06:14:53.309Z,101753.47
2022-10-17T06:15:57.346Z,101756.71
2022-10-17T06:17:01.316Z,101752.13
2022-10-17T06:18:05.303Z,101760.75
2022-10-17T06:19:10.295Z,101759.70
2022-10-17T06:20:15.889Z,101753.09
2022-10-17T06:21:25.189Z,101744.86
2022-10-17T06:22:29.224Z,101748.09
2022-10-17T06:23:33.620Z,101748.66
2022-10-17T06:24:39.076Z,101748.25
2022-10-17T06:25:43.003Z,101745.27
2022-10-17T06:26:51.890Z,101750.34
2022-10-17T06:27:55.737Z,101760.64
2022-10-17T06:28:59.721Z,101752.31
2022-10-17T06:30:04.045Z,101759.08
2022-10-17T06:31:10.330Z,101761.42
2022-10-17T06:32:17.166Z,101768.20
2022-10-17T06:33:21.055Z,101762.45
2022-10-17T06:34:26.018Z,101762.45
2022-10-17T06:35:29.954Z,101754.95
2022-10-17T06:36:33.934Z,101753.47
2022-10-17T06:37:38.251Z,101768.28
2022-10-17T06:38:44.390Z,101773.42
2022-10-17T06:39:48.369Z,101773.42
2022-10-17T06:40:52.654Z,101776.23
2022-10-17T06:41:56.590Z,101779.67
2022-10-17T06:43:00.540Z,101790.09
2022-10-17T06:44:04.554Z,101779.16
2022-10-17T06:45:12.379Z,101778.84
2022-10-17T06:46:18.748Z,101784.72
2022-10-17T06:47:22.738Z,101784.20
2022-10-17T06:48:29.685Z,101782.05
2022-10-17T06:49:32.390Z,101782.69
2022-10-17T06:50:36.369Z,101784.20
2022-10-17T06:51:40.390Z,101791.09
2022-10-17T06:52:44.260Z,101791.09
2022-10-17T06:53:48.123Z,101787.22
2022-10-17T06:54:54.302Z,101438.88
2022-10-17T06:55:58.457Z,101438.88
2022-10-17T06:57:02.513Z,101781.63
2022-10-17T06:58:06.390Z,101776.80
2022-10-17T06:59:10.928Z,101777.33
2022-10-17T07:00:15.028Z,101767.44
2022-10-17T07:01:18.996Z,101759.91
2022-10-17T07:02:23.929Z,101757.98
2022-10-17T07:03:29.918Z,101757.98
2022-10-17T07:04:33.876Z,101761.62
2022-10-17T07:05:37.747Z,101769.48
2022-10-17T07:06:41.870Z,101770.47
2022-10-17T07:07:47.519Z,101767.78
2022-10-17T07:08:51.971Z,101774.85
2022-10-17T07:09:56.998Z,101770.47
2022-10-17T07:11:11.634Z,101779.80
2022-10-17T07:12:15.517Z,101774.53
2022-10-17T07:13:20.519Z,101778.59
2022-10-17T07:14:24.460Z,101774.73
2022-10-17T07:15:28.313Z,101776.21
2022-10-17T07:16:32.306Z,101780.28
2022-10-17T07:17:36.382Z,101774.67
2022-10-17T07:18:41.311Z,101770.91
2022-10-17T07:19:45.432Z,101771.56
2022-10-17T07:20:55.796Z,101771.56
2022-10-17T07:22:01.890Z,101780.77
2022-10-17T07:23:06.047Z,101781.30
2022-10-17T07:24:09.913Z,101769.33
2022-10-17T07:25:16.176Z,101776.95
2022-10-17T07:26:20.679Z,101774.99
2022-10-17T07:27:24.716Z,101767.67
2022-10-17T07:28:31.004Z,101770.03
2022-10-17T07:29:35.104Z,101773.67
2022-10-17T07:30:39.043Z,101773.67
2022-10-17T07:31:44.542Z,101791.92
2022-10-17T07:32:48.779Z,101790.73
2022-10-17T07:33:52.676Z,101797.71
2022-10-17T07:34:56.601Z,101795.13
2022-10-17T07:36:01.806Z,101787.58
2022-10-17T07:37:05.749Z,101787.58
2022-10-17T07:38:09.774Z,101787.11
2022-10-17T07:39:13.703Z,101787.95
2022-10-17T07:40:19.442Z,101787.95
2022-10-17T07:41:23.320Z,101786.43
2022-10-17T07:42:27.451Z,101793.27
2022-10-17T07:43:31.709Z,101791.09
2022-10-17T07:44:35.634Z,101788.30
2022-10-17T07:45:41.061Z,101796.00
2022-10-17T07:46:44.986Z,101796.00
2022-10-17T07:47:48.992Z,101795.76
2022-10-17T07:48:52.958Z,101791.88
2022-10-17T07:49:58.895Z,101784.41
2022-10-17T07:51:07.401Z,101781.38
2022-10-17T07:52:12.591Z,101781.03
2022-10-17T07:53:20.037Z,101781.03
2022-10-17T07:54:28.528Z,101763.30
2022-10-17T07:55:32.608Z,101763.91
2022-10-17T07:56:37.141Z,101754.63
2022-10-17T07:57:42.730Z,101759.66
2022-10-17T07:58:51.291Z,101759.66
2022-10-17T07:59:53.840Z,101759.95
2022-10-17T08:02:06.699Z,101764.84
2022-10-17T08:03:13.890Z,101757.50
2022-10-17T08:04:17.787Z,101757.50
2022-10-17T08:05:24.932Z,101397.85
2022-10-17T08:06:28.912Z,101770.58
2022-10-17T08:07:32.880Z,101770.58
2022-10-17T08:08:36.778Z,101762.64
2022-10-17T08:09:40.634Z,101764.95
2022-10-17T08:10:46.656Z,101762.88
2022-10-17T08:11:53.310Z,101765.33
2022-10-17T08:12:58.676Z,101765.33
2022-10-17T08:14:02.595Z,101766.43
2022-10-17T08:15:08.033Z,101770.58
2022-10-17T08:16:14.052Z,101770.58
2022-10-17T08:17:20.538Z,101770.47
2022-10-17T08:18:26.748Z,101771.70
2022-10-17T08:19:30.797Z,101781.38
2022-10-17T08:20:37.053Z,101781.38
2022-10-17T08:21:40.931Z,101772.64
2022-10-17T08:22:46.358Z,101766.05
2022-10-17T08:23:50.303Z,101770.92
2022-10-17T08:24:54.293Z,101770.92
2022-10-17T08:26:00.600Z,101769.46
2022-10-17T08:27:06.068Z,101769.57
2022-10-17T08:28:11.584Z,101769.57
2022-10-17T08:44:26.105Z,101741.15
2022-10-17T08:45:48.138Z,101730.96
2022-10-17T08:46:57.817Z,101737.57
2022-10-17T08:48:06.890Z,101736.31
2022-10-17T08:49:15.786Z,101731.66
2022-10-17T08:50:30.012Z,101741.59
2022-10-17T08:51:36.894Z,101741.59
2022-10-17T08:52:46.995Z,101737.79
2022-10-17T08:54:14.560Z,101741.22
2022-10-17T08:55:42.752Z,101741.22
2022-10-17T08:56:52.209Z,101734.09
2022-10-17T08:57:56.353Z,101739.97
2022-10-17T08:59:00.328Z,101739.97
2022-10-17T09:00:06.538Z,101728.07
2022-10-17T09:01:31.531Z,101728.69
2022-10-17T09:02:52.000Z,101725.73
2022-10-17T09:04:13.853Z,101731.13
2022-10-17T09:05:35.626Z,101731.13
2022-10-17T09:06:51.432Z,101726.44
2022-10-17T09:08:03.844Z,101730.61
2022-10-17T09:09:27.245Z,101730.61
2022-10-17T09:10:53.823Z,101714.54
2022-10-17T09:12:00.969Z,101714.31
2022-10-17T09:14:51.481Z,101722.25
2022-10-17T09:16:21.614Z,101714.90
2022-10-17T09:18:07.898Z,101622.73
2022-10-17T09:19:20.616Z,101622.73
2022-10-17T09:20:27.672Z,101734.72
2022-10-17T09:21:47.950Z,101727.59
2022-10-17T09:23:05.790Z,101726.16
2022-10-17T09:24:20.069Z,101727.59
2022-10-17T09:25:25.551Z,101728.32
2022-10-17T09:26:33.385Z,101727.47
2022-10-17T09:28:27.366Z,101725.51
2022-10-17T09:29:25.039Z,101725.51
2022-10-17T09:30:45.277Z,101723.52
2022-10-17T09:31:51.863Z,101716.89
2022-10-17T09:32:57.076Z,101725.95
2022-10-17T09:34:03.205Z,101717.73
2022-10-17T09:35:12.669Z,101717.73
2022-10-17T09:36:31.103Z,101717.73
2022-10-17T09:37:35.135Z,101725.06
2022-10-17T09:38:44.767Z,101719.43
2022-10-17T09:39:51.329Z,101723.71
2022-10-17T09:40:58.346Z,101734.23
2022-10-17T09:42:03.157Z,101734.23
2022-10-17T09:43:09.627Z,101727.57
2022-10-17T09:44:22.741Z,101733.58
2022-10-17T09:45:28.104Z,101733.58
2022-10-17T09:46:37.733Z,101735.02
2022-10-17T09:47:59.609Z,101735.02
2022-10-17T09:49:17.203Z,101739.68
2022-10-17T09:50:31.227Z,101735.74
2022-10-17T09:51:37.658Z,101740.41
2022-10-17T09:52:49.179Z,101740.41
2022-10-17T09:53:56.210Z,101729.23
2022-10-17T09:55:10.162Z,101703.55
2022-10-17T09:56:18.300Z,101725.80
2022-10-17T09:57:28.208Z,101725.80
2022-10-17T09:58:50.965Z,101724.41
2022-10-17T10:00:03.255Z,101717.77
2022-10-17T10:01:22.957Z,101722.16
2022-10-17T10:02:26.597Z,101699.66
2022-10-17T10:03:30.649Z,101721.63
2022-10-17T10:04:47.077Z,101716.22
2022-10-17T10:05:43.734Z,101716.22
2022-10-17T10:07:05.283Z,101714.98
2022-10-17T10:08:15.391Z,101699.72
2022-10-17T10:09:23.703Z,101724.78
2022-10-17T10:10:30.628Z,101724.78
2022-10-17T10:11:52.479Z,101718.92
2022-10-17T10:13:06.723Z,101711.55
2022-10-17T10:14:22.036Z,101705.42
2022-10-17T10:15:39.131Z,101699.17
2022-10-17T10:16:45.565Z,101699.17
2022-10-17T10:17:49.499Z,101703.72
2022-10-17T10:18:55.054Z,101709.97
2022-10-17T10:19:59.403Z,101695.17
2022-10-17T10:21:19.333Z,101701.30
2022-10-17T10:22:26.665Z,101706.55
2022-10-17T10:23:30.655Z,101711.09
2022-10-17T10:24:36.402Z,101712.80
2022-10-17T10:25:59.590Z,101711.09
2022-10-17T10:27:05.146Z,101703.27
2022-10-17T10:28:12.372Z,101702.27
2022-10-17T10:29:40.383Z,101695.17
2022-10-17T10:30:48.701Z,101697.14
2022-10-17T10:31:54.659Z,101697.14
2022-10-17T10:33:00.617Z,101695.17
2022-10-17T10:34:13.201Z,101687.19
2022-10-17T10:37:10.479Z,101693.31
2022-10-17T10:56:53.627Z,101693.77
2022-10-17T10:58:00.743Z,101699.75
2022-10-17T10:59:08.937Z,101697.50
2022-10-17T11:00:19.487Z,101692.70
2022-10-17T11:01:42.831Z,101692.70
2022-10-17T11:03:10.556Z,101694.01
2022-10-17T11:04:21.089Z,101698.13
2022-10-17T11:05:44.080Z,101697.58
2022-10-17T11:06:50.760Z,101696.33
2022-10-17T11:08:00.608Z,101697.05
2022-10-17T11:09:39.345Z,101692.22
2022-10-17T11:11:06.756Z,101699.92
2022-10-17T11:12:28.873Z,101704.33
2022-10-17T11:15:45.366Z,101702.06
2022-10-17T11:16:58.385Z,101700.94
2022-10-17T11:18:12.305Z,101695.13
2022-10-17T11:19:49.609Z,101684.04
2022-10-17T11:20:58.954Z,101677.78
2022-10-17T11:22:22.912Z,101671.25
2022-10-17T11:23:50.236Z,101671.25
2022-10-17T11:25:17.641Z,101667.55
2022-10-17T11:26:26.134Z,101663.84
2022-10-17T11:27:31.153Z,101670.25
2022-10-17T11:28:37.796Z,101670.13
2022-10-17T11:29:45.720Z,101673.80
2022-10-17T11:30:58.576Z,101676.38
2022-10-17T11:32:06.668Z,101669.11
2022-10-17T11:33:13.681Z,101677.34
2022-10-17T11:34:26.606Z,101677.34
2022-10-17T11:35:44.357Z,101676.38
2022-10-17T11:36:53.021Z,101676.09
2022-10-17T11:38:05.829Z,101672.38
2022-10-17T11:39:16.075Z,101669.84
2022-10-17T11:40:34.463Z,101660.72
2022-10-17T11:41:58.855Z,101657.02
2022-10-17T11:43:17.524Z,101657.02
2022-10-17T11:44:33.599Z,101652.90
2022-10-17T11:45:43.287Z,101652.90
2022-10-17T11:46:50.266Z,101642.94
2022-10-17T11:48:05.706Z,101642.94
2022-10-17T11:49:20.064Z,101646.48
2022-10-17T11:53:02.733Z,101638.53
2022-10-17T11:53:58.059Z,101632.28
2022-10-17T11:55:07.929Z,101630.27
2022-10-17T11:56:14.956Z,101631.28
2022-10-17T11:57:41.125Z,101629.42
2022-10-17T11:58:48.210Z,101630.27
2022-10-17T11:59:59.307Z,101623.73
2022-10-17T12:01:24.595Z,101626.30
2022-10-17T12:02:56.192Z,101625.45
2022-10-17T12:04:28.401Z,101625.45
2022-10-17T12:05:50.746Z,101616.63
2022-10-17T12:07:04.145Z,101616.63
2022-10-17T12:08:31.289Z,101620.30
2022-10-17T12:09:31.399Z,101620.30
2022-10-17T12:11:03.926Z,101610.66
2022-10-17T12:12:08.428Z,101618.61
2022-10-17T12:13:39.569Z,101618.61
2022-10-17T12:16:24.601Z,101611.51
2022-10-17T12:17:36.371Z,101603.53
2022-10-17T12:18:40.404Z,101595.30
2022-10-17T12:20:23.432Z,101595.30
2022-10-17T12:21:31.273Z,101600.70
2022-10-17T12:22:34.416Z,101601.55
2022-10-17T12:23:40.060Z,101605.82
2022-10-17T12:24:46.477Z,101603.12
2022-10-17T12:25:58.264Z,101603.12
2022-10-17T12:27:25.473Z,101612.92
2022-10-17T12:28:32.019Z,101613.64
2022-10-17T12:29:37.612Z,101615.34
2022-10-17T12:31:03.141Z,101623.31
2022-10-17T12:32:14.101Z,101611.66
2022-10-17T12:33:21.042Z,101617.78
2022-10-17T12:34:26.406Z,101607.82
2022-10-17T12:35:32.845Z,101602.41
2022-10-17T12:36:38.892Z,101607.53
2022-10-17T12:37:51.257Z,101605.80
2022-10-17T12:39:07.798Z,101605.80
2022-10-17T12:40:41.475Z,101599.27
2022-10-17T12:41:50.204Z,101599.27
2022-10-17T12:42:57.231Z,101590.17
2022-10-17T12:44:01.198Z,101585.06
2022-10-17T12:45:09.772Z,101591.44
2022-10-17T13:06:33.610Z,101613.35
2022-10-17T13:07:40.593Z,101604.11
2022-10-17T13:08:54.511Z,101604.11
2022-10-17T13:09:59.877Z,101608.38
2022-10-17T13:11:05.520Z,101605.67
2022-10-17T13:12:15.626Z,101608.09
2022-10-17T13:13:25.443Z,101599.04
2022-10-17T13:14:34.755Z,101607.84
2022-10-17T13:15:40.416Z,101601.58
2022-10-17T13:16:59.339Z,101593.34
2022-10-17T13:18:09.080Z,101593.34
2022-10-17T13:19:16.939Z,101595.75
2022-10-17T13:20:25.494Z,101577.80
2022-10-17T13:22:51.687Z,101580.52
2022-10-17T13:27:31.642Z,101578.66
2022-10-17T13:28:39.185Z,101575.39
2022-10-17T13:29:44.236Z,101577.97
2022-10-17T13:30:49.797Z,101577.13
2022-10-17T13:32:02.721Z,101580.80
2022-10-17T13:33:12.166Z,101580.80
2022-10-17T13:34:25.835Z,101584.52
2022-10-17T13:36:43.599Z,101587.05
2022-10-17T13:37:53.836Z,101582.66
2022-10-17T13:38:57.715Z,101584.52
2022-10-17T13:40:11.377Z,101585.52
2022-10-17T13:41:34.202Z,101590.93
2022-10-17T13:42:33.286Z,101590.93
2022-10-17T13:43:37.523Z,101583.05
2022-10-17T13:44:43.567Z,101583.92
2022-10-17T13:45:53.326Z,101583.05
2022-10-17T13:46:57.408Z,101583.05
2022-10-17T13:48:04.335Z,101584.77
2022-10-17T13:49:17.322Z,101583.92
2022-10-17T13:50:51.407Z,101588.45
2022-10-17T13:51:44.841Z,101588.45
2022-10-17T13:52:50.821Z,101591.31
2022-10-17T13:53:54.870Z,101587.77
2022-10-17T13:55:16.847Z,101587.77
2022-10-17T13:56:29.915Z,101582.48
2022-10-17T13:57:32.401Z,101579.94
2022-10-17T13:58:54.879Z,101579.06
2022-10-17T14:00:07.043Z,101579.06
2022-10-17T14:01:11.285Z,101573.95
2022-10-17T14:02:18.376Z,101573.95
2022-10-17T14:03:32.572Z,101578.50
2022-10-17T14:04:56.612Z,101574.11
2022-10-17T14:06:01.054Z,101574.11
2022-10-17T14:07:06.736Z,101576.09
2022-10-17T14:08:31.147Z,101577.06
2022-10-17T14:09:29.509Z,101575.38
2022-10-17T14:10:38.250Z,101575.38
2022-10-17T14:11:44.641Z,101579.92
2022-10-17T14:12:51.035Z,101572.23
2022-10-17T14:14:03.554Z,101575.95
2022-10-17T14:15:18.883Z,101575.95
2022-10-17T14:16:24.011Z,101576.66
2022-10-17T14:17:29.012Z,101573.97
2022-10-17T14:18:36.594Z,101571.39
2022-10-17T14:20:06.526Z,101571.39
2022-10-17T14:22:29.032Z,101576.52
2022-10-17T14:23:40.853Z,101573.95
2022-10-17T14:24:45.227Z,101576.93
2022-10-17T14:25:49.140Z,101571.66
2022-10-17T14:26:58.368Z,101571.81
2022-10-17T14:28:14.343Z,101547.89
2022-10-17T14:29:30.193Z,101547.89
2022-10-17T14:30:56.911Z,101565.26
2022-10-17T14:31:42.789Z,101568.23
2022-10-17T14:32:46.740Z,101564.81
2022-10-17T14:33:53.403Z,101569.50
2022-10-17T14:35:17.858Z,101560.55
2022-10-17T14:36:05.618Z,101565.39
2022-10-17T14:37:17.252Z,101565.39
2022-10-17T14:38:22.046Z,101568.78
2022-10-17T14:39:28.281Z,101573.45
2022-10-17T14:40:34.778Z,101570.91
2022-10-17T14:41:46.066Z,101571.04
2022-10-17T14:42:53.130Z,101567.61
2022-10-17T14:44:01.879Z,101567.77
2022-10-17T14:45:13.657Z,101565.07
2022-10-17T14:46:19.681Z,101566.20
2022-10-17T14:47:43.981Z,101571.88
2022-10-17T14:48:33.032Z,101576.55
2022-10-17T14:49:39.636Z,101581.23
2022-10-17T14:51:04.298Z,101579.66
2022-10-17T14:52:19.577Z,101585.48
2022-10-17T14:53:23.441Z,101586.62
2022-10-17T14:54:28.330Z,101579.92
2022-10-17T14:55:34.859Z,101482.06
2022-10-17T14:56:41.808Z,101579.59
2022-10-17T14:57:48.647Z,101585.15
2022-10-17T14:58:54.331Z,101585.15
2022-10-17T14:59:58.781Z,101581.00
2022-10-17T15:01:11.211Z,101586.67
2022-10-17T15:03:05.819Z,101590.34
2022-10-17T15:03:27.812Z,101582.52
2022-10-17T15:04:44.420Z,101582.52
2022-10-17T15:05:40.721Z,101582.79
2022-10-17T15:06:47.869Z,101581.38
2022-10-17T15:07:51.888Z,101584.19
2022-10-17T15:08:57.280Z,101574.48
2022-10-17T15:10:17.449Z,101574.48
2022-10-17T15:11:13.210Z,101591.80
2022-10-17T15:12:25.581Z,101591.80
2022-10-17T15:13:32.278Z,101587.52
2022-10-17T15:14:35.286Z,101587.52
2022-10-17T15:15:41.103Z,101590.48
2022-10-17T15:16:45.261Z,101597.73
2022-10-17T15:17:49.238Z,101595.16
2022-10-17T15:18:54.208Z,101594.45
2022-10-17T15:19:58.872Z,101594.30
2022-10-17T15:21:05.488Z,101593.58
2022-10-17T15:22:10.147Z,101591.76
2022-10-17T15:23:15.378Z,101592.61
2022-10-17T15:24:19.313Z,101596.16
2022-10-17T15:25:25.192Z,101596.16
2022-10-17T15:26:31.749Z,101590.03
2022-10-17T15:27:36.061Z,101590.03
2022-10-17T15:28:41.930Z,101593.73
2022-10-17T15:29:45.985Z,101594.58
2022-10-17T15:30:52.305Z,101593.84
2022-10-17T15:31:56.353Z,101593.00
2022-10-17T15:33:03.372Z,101597.55
2022-10-17T15:34:08.591Z,101587.03
2022-10-17T15:35:12.635Z,101592.42
2022-10-17T15:36:35.053Z,101597.93
2022-10-17T15:37:39.061Z,101592.81
2022-10-17T15:38:45.924Z,101591.11
2022-10-17T15:39:52.431Z,101591.11
2022-10-17T15:40:59.528Z,101586.84
2022-10-17T15:42:09.190Z,101596.31
2022-10-17T15:43:19.927Z,101591.88
2022-10-17T15:44:27.293Z,101589.45
2022-10-17T15:45:34.457Z,101589.45
2022-10-17T15:46:40.830Z,101590.72
2022-10-17T15:47:49.647Z,101590.72
2022-10-17T15:48:55.519Z,101593.80
2022-10-17T15:50:00.803Z,101590.38
2022-10-17T15:53:55.038Z,101598.00
2022-10-17T16:27:11.717Z,101589.25
2022-10-17T16:28:10.717Z,101589.25
2022-10-17T16:29:16.423Z,101591.94
2022-10-17T16:31:28.948Z,101585.85
2022-10-17T16:32:33.366Z,101584.27
2022-10-17T16:33:37.487Z,101584.27
2022-10-17T16:34:42.934Z,101584.27
2022-10-17T16:35:46.817Z,101588.80